sensor_id;sensor_type;location;lat;lon;timestamp;P1;durP1;ratioP1;P2;durP2;ratioP2
61477;SDS011;47345;52.334;10.392;2023-04-04T00:00:34;2.20;;;2.00;;
61477;SDS011;47345;52.334;10.392;2023-04-04T00:03:06;2.20;;;2.10;;
61477;SDS011;47345;52.334;10.392;2023-04-04T00:05:37;2.70;;;2.30;;
61477;SDS011;47345;52.334;10.392;2023-04-04T00:08:09;3.80;;;2.60;;
61477;SDS011;47345;52.334;10.392;2023-04-04T00:10:40;3.00;;;2.40;;
61477;SDS011;47345;52.334;10.392;2023-04-04T00:13:10;3.10;;;2.40;;
61477;SDS011;47345;52.334;10.392;2023-04-04T00:15:42;5.20;;;2.70;;
61477;SDS011;47345;52.334;10.392;2023-04-04T00:18:14;3.20;;;2.10;;
61477;SDS011;47345;52.334;10.392;2023-04-04T00:20:45;4.30;;;2.20;;
61477;SDS011;47345;52.334;10.392;2023-04-04T00:23:16;2.90;;;2.00;;
61477;SDS011;47345;52.334;10.392;2023-04-04T00:25:49;2.40;;;1.80;;
61477;SDS011;47345;52.334;10.392;2023-04-04T00:28:20;2.20;;;2.10;;
61477;SDS011;47345;52.334;10.392;2023-04-04T00:30:51;4.40;;;2.00;;
61477;SDS011;47345;52.334;10.392;2023-04-04T00:33:22;2.00;;;1.90;;
61477;SDS011;47345;52.334;10.392;2023-04-04T00:35:53;3.30;;;1.90;;
61477;SDS011;47345;52.334;10.392;2023-04-04T00:38:23;2.60;;;2.20;;
61477;SDS011;47345;52.334;10.392;2023-04-04T00:40:56;4.70;;;2.60;;
61477;SDS011;47345;52.334;10.392;2023-04-04T00:43:27;1.60;;;1.50;;
61477;SDS011;47345;52.334;10.392;2023-04-04T00:45:59;2.30;;;2.10;;
61477;SDS011;47345;52.334;10.392;2023-04-04T00:48:30;3.20;;;2.50;;
61477;SDS011;47345;52.334;10.392;2023-04-04T00:51:01;2.20;;;2.00;;
61477;SDS011;47345;52.334;10.392;2023-04-04T00:53:32;2.50;;;2.10;;
61477;SDS011;47345;52.334;10.392;2023-04-04T00:56:02;3.40;;;2.40;;
61477;SDS011;47345;52.334;10.392;2023-04-04T00:58:33;4.60;;;2.00;;
61477;SDS011;47345;52.334;10.392;2023-04-04T01:01:04;2.70;;;2.20;;
61477;SDS011;47345;52.334;10.392;2023-04-04T01:03:37;2.00;;;1.80;;
61477;SDS011;47345;52.334;10.392;2023-04-04T01:06:08;2.10;;;1.90;;
61477;SDS011;47345;52.334;10.392;2023-04-04T01:08:38;4.40;;;2.20;;
61477;SDS011;47345;52.334;10.392;2023-04-04T01:11:11;2.00;;;1.80;;
61477;SDS011;47345;52.334;10.392;2023-04-04T01:13:42;2.10;;;1.90;;
61477;SDS011;47345;52.334;10.392;2023-04-04T01:16:12;1.90;;;1.70;;
61477;SDS011;47345;52.334;10.392;2023-04-04T01:18:43;3.10;;;2.00;;
61477;SDS011;47345;52.334;10.392;2023-04-04T01:21:14;2.20;;;2.00;;
61477;SDS011;47345;52.334;10.392;2023-04-04T01:23:50;1.90;;;1.80;;
61477;SDS011;47345;52.334;10.392;2023-04-04T01:26:26;1.70;;;1.60;;
61477;SDS011;47345;52.334;10.392;2023-04-04T01:28:58;2.10;;;1.90;;
61477;SDS011;47345;52.334;10.392;2023-04-04T01:31:30;1.90;;;1.80;;
61477;SDS011;47345;52.334;10.392;2023-04-04T01:34:06;3.50;;;2.00;;
61477;SDS011;47345;52.334;10.392;2023-04-04T01:36:46;2.60;;;2.10;;
61477;SDS011;47345;52.334;10.392;2023-04-04T01:39:23;1.90;;;1.80;;
61477;SDS011;47345;52.334;10.392;2023-04-04T01:41:59;3.80;;;1.80;;
61477;SDS011;47345;52.334;10.392;2023-04-04T01:44:31;3.00;;;2.10;;
61477;SDS011;47345;52.334;10.392;2023-04-04T01:47:02;2.20;;;2.10;;
61477;SDS011;47345;52.334;10.392;2023-04-04T01:49:35;2.00;;;1.80;;
61477;SDS011;47345;52.334;10.392;2023-04-04T01:52:06;5.50;;;2.00;;
61477;SDS011;47345;52.334;10.392;2023-04-04T01:54:36;1.80;;;1.70;;
61477;SDS011;47345;52.334;10.392;2023-04-04T01:57:07;2.10;;;1.90;;
61477;SDS011;47345;52.334;10.392;2023-04-04T01:59:38;2.20;;;1.70;;
61477;SDS011;47345;52.334;10.392;2023-04-04T02:02:08;2.00;;;1.90;;
61477;SDS011;47345;52.334;10.392;2023-04-04T02:04:38;1.90;;;1.80;;
61477;SDS011;47345;52.334;10.392;2023-04-04T02:07:10;2.30;;;1.70;;
61477;SDS011;47345;52.334;10.392;2023-04-04T02:09:40;3.10;;;2.20;;
61477;SDS011;47345;52.334;10.392;2023-04-04T02:12:11;2.10;;;1.90;;
61477;SDS011;47345;52.334;10.392;2023-04-04T02:14:41;2.10;;;1.80;;
61477;SDS011;47345;52.334;10.392;2023-04-04T02:17:12;1.90;;;1.60;;
61477;SDS011;47345;52.334;10.392;2023-04-04T02:19:42;2.80;;;2.10;;
61477;SDS011;47345;52.334;10.392;2023-04-04T02:22:13;1.60;;;1.50;;
61477;SDS011;47345;52.334;10.392;2023-04-04T02:24:43;1.90;;;1.70;;
61477;SDS011;47345;52.334;10.392;2023-04-04T02:27:13;2.00;;;1.80;;
61477;SDS011;47345;52.334;10.392;2023-04-04T02:29:43;2.60;;;2.10;;
61477;SDS011;47345;52.334;10.392;2023-04-04T02:32:15;2.70;;;2.00;;
61477;SDS011;47345;52.334;10.392;2023-04-04T02:34:45;3.90;;;2.10;;
61477;SDS011;47345;52.334;10.392;2023-04-04T02:37:15;2.30;;;1.90;;
61477;SDS011;47345;52.334;10.392;2023-04-04T02:39:46;2.80;;;1.90;;
61477;SDS011;47345;52.334;10.392;2023-04-04T02:42:16;3.30;;;1.90;;
61477;SDS011;47345;52.334;10.392;2023-04-04T02:44:46;1.70;;;1.60;;
61477;SDS011;47345;52.334;10.392;2023-04-04T02:47:16;2.00;;;1.90;;
61477;SDS011;47345;52.334;10.392;2023-04-04T02:49:47;1.80;;;1.70;;
61477;SDS011;47345;52.334;10.392;2023-04-04T02:52:19;1.90;;;1.80;;
61477;SDS011;47345;52.334;10.392;2023-04-04T02:54:49;3.50;;;2.30;;
61477;SDS011;47345;52.334;10.392;2023-04-04T02:57:20;6.10;;;2.00;;
61477;SDS011;47345;52.334;10.392;2023-04-04T02:59:50;2.30;;;1.80;;
61477;SDS011;47345;52.334;10.392;2023-04-04T03:02:21;1.80;;;1.70;;
61477;SDS011;47345;52.334;10.392;2023-04-04T03:04:53;2.00;;;1.60;;
61477;SDS011;47345;52.334;10.392;2023-04-04T03:07:23;1.60;;;1.50;;
61477;SDS011;47345;52.334;10.392;2023-04-04T03:09:54;1.60;;;1.50;;
61477;SDS011;47345;52.334;10.392;2023-04-04T03:12:25;1.40;;;1.40;;
61477;SDS011;47345;52.334;10.392;2023-04-04T03:14:56;2.30;;;2.00;;
61477;SDS011;47345;52.334;10.392;2023-04-04T03:17:26;1.50;;;1.40;;
61477;SDS011;47345;52.334;10.392;2023-04-04T03:19:56;2.00;;;1.90;;
61477;SDS011;47345;52.334;10.392;2023-04-04T03:22:27;3.80;;;1.70;;
61477;SDS011;47345;52.334;10.392;2023-04-04T03:24:58;1.80;;;1.70;;
61477;SDS011;47345;52.334;10.392;2023-04-04T03:27:28;1.80;;;1.70;;
61477;SDS011;47345;52.334;10.392;2023-04-04T03:29:59;1.70;;;1.60;;
61477;SDS011;47345;52.334;10.392;2023-04-04T03:32:31;1.80;;;1.60;;
61477;SDS011;47345;52.334;10.392;2023-04-04T03:35:03;2.10;;;1.90;;
61477;SDS011;47345;52.334;10.392;2023-04-04T03:37:34;1.70;;;1.60;;
61477;SDS011;47345;52.334;10.392;2023-04-04T03:40:06;2.70;;;2.00;;
61477;SDS011;47345;52.334;10.392;2023-04-04T03:42:37;1.80;;;1.70;;
61477;SDS011;47345;52.334;10.392;2023-04-04T03:45:09;2.30;;;1.90;;
61477;SDS011;47345;52.334;10.392;2023-04-04T03:47:40;1.90;;;1.70;;
61477;SDS011;47345;52.334;10.392;2023-04-04T03:50:10;2.30;;;1.90;;
61477;SDS011;47345;52.334;10.392;2023-04-04T03:52:41;1.90;;;1.80;;
61477;SDS011;47345;52.334;10.392;2023-04-04T03:55:12;4.70;;;2.00;;
61477;SDS011;47345;52.334;10.392;2023-04-04T03:57:43;2.00;;;1.80;;
61477;SDS011;47345;52.334;10.392;2023-04-04T04:00:14;2.50;;;1.70;;
61477;SDS011;47345;52.334;10.392;2023-04-04T04:02:45;2.20;;;2.00;;
61477;SDS011;47345;52.334;10.392;2023-04-04T04:05:16;2.10;;;1.90;;
61477;SDS011;47345;52.334;10.392;2023-04-04T04:07:47;6.00;;;2.00;;
61477;SDS011;47345;52.334;10.392;2023-04-04T04:10:19;2.10;;;1.80;;
61477;SDS011;47345;52.334;10.392;2023-04-04T04:12:49;2.60;;;2.00;;
61477;SDS011;47345;52.334;10.392;2023-04-04T04:15:20;3.40;;;2.30;;
61477;SDS011;47345;52.334;10.392;2023-04-04T04:17:51;2.70;;;2.00;;
61477;SDS011;47345;52.334;10.392;2023-04-04T04:20:21;2.40;;;2.10;;
61477;SDS011;47345;52.334;10.392;2023-04-04T04:22:52;2.90;;;2.10;;
61477;SDS011;47345;52.334;10.392;2023-04-04T04:25:23;5.40;;;3.30;;
61477;SDS011;47345;52.334;10.392;2023-04-04T04:27:55;17.40;;;7.50;;
61477;SDS011;47345;52.334;10.392;2023-04-04T04:30:25;4.70;;;3.80;;
61477;SDS011;47345;52.334;10.392;2023-04-04T04:32:56;5.70;;;4.10;;
61477;SDS011;47345;52.334;10.392;2023-04-04T04:35:26;11.50;;;6.00;;
61477;SDS011;47345;52.334;10.392;2023-04-04T04:37:57;2.80;;;2.50;;
61477;SDS011;47345;52.334;10.392;2023-04-04T04:40:27;2.10;;;2.00;;
61477;SDS011;47345;52.334;10.392;2023-04-04T04:42:58;1.90;;;1.80;;
61477;SDS011;47345;52.334;10.392;2023-04-04T04:45:29;2.30;;;2.10;;
61477;SDS011;47345;52.334;10.392;2023-04-04T04:47:59;2.20;;;2.00;;
61477;SDS011;47345;52.334;10.392;2023-04-04T04:50:30;2.60;;;2.20;;
61477;SDS011;47345;52.334;10.392;2023-04-04T04:53:01;3.00;;;2.20;;
61477;SDS011;47345;52.334;10.392;2023-04-04T04:55:31;2.20;;;1.90;;
61477;SDS011;47345;52.334;10.392;2023-04-04T04:58:03;1.90;;;1.80;;
61477;SDS011;47345;52.334;10.392;2023-04-04T05:00:33;6.90;;;4.90;;
61477;SDS011;47345;52.334;10.392;2023-04-04T05:03:06;9.70;;;6.00;;
61477;SDS011;47345;52.334;10.392;2023-04-04T05:05:36;2.40;;;2.20;;
61477;SDS011;47345;52.334;10.392;2023-04-04T05:08:07;2.80;;;2.00;;
61477;SDS011;47345;52.334;10.392;2023-04-04T05:10:38;2.80;;;2.50;;
61477;SDS011;47345;52.334;10.392;2023-04-04T05:13:09;3.00;;;2.30;;
61477;SDS011;47345;52.334;10.392;2023-04-04T05:15:41;3.60;;;2.30;;
61477;SDS011;47345;52.334;10.392;2023-04-04T05:18:11;4.60;;;2.60;;
61477;SDS011;47345;52.334;10.392;2023-04-04T05:20:41;1.70;;;1.60;;
61477;SDS011;47345;52.334;10.392;2023-04-04T05:23:17;2.00;;;1.90;;
61477;SDS011;47345;52.334;10.392;2023-04-04T05:25:48;2.40;;;2.20;;
61477;SDS011;47345;52.334;10.392;2023-04-04T05:28:20;2.40;;;2.10;;
61477;SDS011;47345;52.334;10.392;2023-04-04T05:30:51;2.30;;;2.10;;
61477;SDS011;47345;52.334;10.392;2023-04-04T05:33:24;2.10;;;1.90;;
61477;SDS011;47345;52.334;10.392;2023-04-04T05:35:54;2.20;;;2.10;;
61477;SDS011;47345;52.334;10.392;2023-04-04T05:38:25;2.00;;;1.90;;
61477;SDS011;47345;52.334;10.392;2023-04-04T05:40:56;2.10;;;1.90;;
61477;SDS011;47345;52.334;10.392;2023-04-04T05:43:27;2.60;;;1.80;;
61477;SDS011;47345;52.334;10.392;2023-04-04T05:45:57;3.20;;;2.40;;
61477;SDS011;47345;52.334;10.392;2023-04-04T05:48:28;4.60;;;2.40;;
61477;SDS011;47345;52.334;10.392;2023-04-04T05:50:59;2.40;;;2.20;;
61477;SDS011;47345;52.334;10.392;2023-04-04T05:53:29;8.00;;;6.00;;
61477;SDS011;47345;52.334;10.392;2023-04-04T05:56:00;11.00;;;6.40;;
61477;SDS011;47345;52.334;10.392;2023-04-04T05:58:30;2.60;;;2.30;;
61477;SDS011;47345;52.334;10.392;2023-04-04T06:01:01;2.30;;;2.10;;
61477;SDS011;47345;52.334;10.392;2023-04-04T06:03:37;2.60;;;2.10;;
61477;SDS011;47345;52.334;10.392;2023-04-04T06:06:08;2.20;;;2.00;;
61477;SDS011;47345;52.334;10.392;2023-04-04T06:08:39;2.20;;;2.10;;
61477;SDS011;47345;52.334;10.392;2023-04-04T06:11:20;2.00;;;1.90;;
61477;SDS011;47345;52.334;10.392;2023-04-04T06:13:51;2.50;;;2.10;;
61477;SDS011;47345;52.334;10.392;2023-04-04T06:16:22;2.30;;;2.10;;
61477;SDS011;47345;52.334;10.392;2023-04-04T06:18:54;2.30;;;2.10;;
61477;SDS011;47345;52.334;10.392;2023-04-04T06:21:25;1.50;;;1.50;;
61477;SDS011;47345;52.334;10.392;2023-04-04T06:23:56;2.30;;;2.10;;
61477;SDS011;47345;52.334;10.392;2023-04-04T06:26:26;2.60;;;2.40;;
61477;SDS011;47345;52.334;10.392;2023-04-04T06:28:58;2.30;;;2.00;;
61477;SDS011;47345;52.334;10.392;2023-04-04T06:31:29;3.30;;;2.60;;
61477;SDS011;47345;52.334;10.392;2023-04-04T06:33:59;2.40;;;2.00;;
61477;SDS011;47345;52.334;10.392;2023-04-04T06:36:29;3.90;;;2.10;;
61477;SDS011;47345;52.334;10.392;2023-04-04T06:39:00;1.80;;;1.70;;
61477;SDS011;47345;52.334;10.392;2023-04-04T06:41:30;2.20;;;1.90;;
61477;SDS011;47345;52.334;10.392;2023-04-04T06:44:01;3.00;;;2.30;;
61477;SDS011;47345;52.334;10.392;2023-04-04T06:46:32;3.70;;;2.20;;
61477;SDS011;47345;52.334;10.392;2023-04-04T06:49:04;2.20;;;2.00;;
61477;SDS011;47345;52.334;10.392;2023-04-04T06:51:34;3.00;;;2.30;;
61477;SDS011;47345;52.334;10.392;2023-04-04T06:54:08;2.30;;;2.10;;
61477;SDS011;47345;52.334;10.392;2023-04-04T06:56:39;2.10;;;1.90;;
61477;SDS011;47345;52.334;10.392;2023-04-04T06:59:09;2.20;;;2.00;;
61477;SDS011;47345;52.334;10.392;2023-04-04T07:01:41;3.20;;;2.00;;
61477;SDS011;47345;52.334;10.392;2023-04-04T07:04:11;2.00;;;1.90;;
61477;SDS011;47345;52.334;10.392;2023-04-04T07:06:42;2.10;;;2.00;;
61477;SDS011;47345;52.334;10.392;2023-04-04T07:09:12;2.60;;;2.00;;
61477;SDS011;47345;52.334;10.392;2023-04-04T07:11:56;2.50;;;1.90;;
61477;SDS011;47345;52.334;10.392;2023-04-04T07:14:26;2.40;;;2.00;;
61477;SDS011;47345;52.334;10.392;2023-04-04T07:16:56;2.90;;;2.00;;
61477;SDS011;47345;52.334;10.392;2023-04-04T07:19:35;2.00;;;1.90;;
61477;SDS011;47345;52.334;10.392;2023-04-04T07:22:05;2.00;;;1.90;;
61477;SDS011;47345;52.334;10.392;2023-04-04T07:24:35;5.30;;;2.20;;
61477;SDS011;47345;52.334;10.392;2023-04-04T07:27:06;2.60;;;2.10;;
61477;SDS011;47345;52.334;10.392;2023-04-04T07:29:37;2.80;;;1.90;;
61477;SDS011;47345;52.334;10.392;2023-04-04T07:32:08;2.90;;;2.00;;
61477;SDS011;47345;52.334;10.392;2023-04-04T07:34:38;1.80;;;1.70;;
61477;SDS011;47345;52.334;10.392;2023-04-04T07:37:09;2.40;;;2.00;;
61477;SDS011;47345;52.334;10.392;2023-04-04T07:39:40;2.40;;;2.00;;
61477;SDS011;47345;52.334;10.392;2023-04-04T07:42:11;3.00;;;1.90;;
61477;SDS011;47345;52.334;10.392;2023-04-04T07:44:41;2.90;;;2.00;;
61477;SDS011;47345;52.334;10.392;2023-04-04T07:47:12;2.30;;;2.00;;
61477;SDS011;47345;52.334;10.392;2023-04-04T07:49:42;1.50;;;1.40;;
61477;SDS011;47345;52.334;10.392;2023-04-04T07:52:13;2.40;;;1.50;;
61477;SDS011;47345;52.334;10.392;2023-04-04T07:54:43;2.20;;;2.00;;
61477;SDS011;47345;52.334;10.392;2023-04-04T07:57:14;1.90;;;1.70;;
61477;SDS011;47345;52.334;10.392;2023-04-04T07:59:45;4.90;;;2.00;;
61477;SDS011;47345;52.334;10.392;2023-04-04T08:02:16;1.80;;;1.70;;
61477;SDS011;47345;52.334;10.392;2023-04-04T08:04:47;3.60;;;2.10;;
61477;SDS011;47345;52.334;10.392;2023-04-04T08:07:17;1.60;;;1.50;;
61477;SDS011;47345;52.334;10.392;2023-04-04T08:09:48;1.80;;;1.70;;
61477;SDS011;47345;52.334;10.392;2023-04-04T08:12:18;2.60;;;2.00;;
61477;SDS011;47345;52.334;10.392;2023-04-04T08:14:49;1.70;;;1.60;;
61477;SDS011;47345;52.334;10.392;2023-04-04T08:17:20;2.50;;;1.90;;
61477;SDS011;47345;52.334;10.392;2023-04-04T08:19:51;4.00;;;2.00;;
61477;SDS011;47345;52.334;10.392;2023-04-04T08:22:21;2.30;;;1.80;;
61477;SDS011;47345;52.334;10.392;2023-04-04T08:24:53;1.50;;;1.40;;
61477;SDS011;47345;52.334;10.392;2023-04-04T08:27:24;2.80;;;2.20;;
61477;SDS011;47345;52.334;10.392;2023-04-04T08:29:55;1.70;;;1.60;;
61477;SDS011;47345;52.334;10.392;2023-04-04T08:32:26;3.00;;;1.70;;
61477;SDS011;47345;52.334;10.392;2023-04-04T08:34:56;2.60;;;2.10;;
61477;SDS011;47345;52.334;10.392;2023-04-04T08:37:27;1.80;;;1.60;;
61477;SDS011;47345;52.334;10.392;2023-04-04T08:39:57;2.10;;;1.70;;
61477;SDS011;47345;52.334;10.392;2023-04-04T08:42:28;3.60;;;1.70;;
61477;SDS011;47345;52.334;10.392;2023-04-04T08:45:03;2.10;;;1.90;;
61477;SDS011;47345;52.334;10.392;2023-04-04T08:47:36;1.80;;;1.70;;
61477;SDS011;47345;52.334;10.392;2023-04-04T08:50:07;1.80;;;1.70;;
61477;SDS011;47345;52.334;10.392;2023-04-04T08:52:38;1.40;;;1.30;;
61477;SDS011;47345;52.334;10.392;2023-04-04T08:55:12;1.40;;;1.40;;
61477;SDS011;47345;52.334;10.392;2023-04-04T08:57:43;2.20;;;1.80;;
61477;SDS011;47345;52.334;10.392;2023-04-04T09:00:14;1.80;;;1.70;;
61477;SDS011;47345;52.334;10.392;2023-04-04T09:02:49;1.60;;;1.50;;
61477;SDS011;47345;52.334;10.392;2023-04-04T09:05:24;1.50;;;1.40;;
61477;SDS011;47345;52.334;10.392;2023-04-04T09:07:55;1.60;;;1.50;;
61477;SDS011;47345;52.334;10.392;2023-04-04T09:10:27;3.90;;;1.60;;
61477;SDS011;47345;52.334;10.392;2023-04-04T09:12:58;3.40;;;1.60;;
61477;SDS011;47345;52.334;10.392;2023-04-04T09:15:45;1.50;;;1.40;;
61477;SDS011;47345;52.334;10.392;2023-04-04T09:18:17;2.50;;;1.40;;
61477;SDS011;47345;52.334;10.392;2023-04-04T09:20:49;1.40;;;1.30;;
61477;SDS011;47345;52.334;10.392;2023-04-04T09:23:19;1.20;;;1.20;;
61477;SDS011;47345;52.334;10.392;2023-04-04T09:25:52;1.70;;;1.60;;
61477;SDS011;47345;52.334;10.392;2023-04-04T09:28:31;2.90;;;1.40;;
61477;SDS011;47345;52.334;10.392;2023-04-04T09:31:05;1.50;;;1.40;;
61477;SDS011;47345;52.334;10.392;2023-04-04T09:33:37;1.70;;;1.40;;
61477;SDS011;47345;52.334;10.392;2023-04-04T09:36:09;1.10;;;1.10;;
61477;SDS011;47345;52.334;10.392;2023-04-04T09:38:44;1.40;;;1.30;;
61477;SDS011;47345;52.334;10.392;2023-04-04T09:41:15;1.10;;;1.10;;
61477;SDS011;47345;52.334;10.392;2023-04-04T09:43:48;2.50;;;1.10;;
61477;SDS011;47345;52.334;10.392;2023-04-04T09:46:21;2.70;;;1.30;;
61477;SDS011;47345;52.334;10.392;2023-04-04T09:48:53;3.30;;;1.60;;
61477;SDS011;47345;52.334;10.392;2023-04-04T09:51:26;1.50;;;1.40;;
61477;SDS011;47345;52.334;10.392;2023-04-04T09:54:03;1.30;;;1.20;;
61477;SDS011;47345;52.334;10.392;2023-04-04T09:56:42;1.40;;;1.30;;
61477;SDS011;47345;52.334;10.392;2023-04-04T09:59:13;2.70;;;1.20;;
61477;SDS011;47345;52.334;10.392;2023-04-04T10:01:44;2.30;;;1.40;;
61477;SDS011;47345;52.334;10.392;2023-04-04T10:04:17;1.30;;;1.20;;
61477;SDS011;47345;52.334;10.392;2023-04-04T10:06:51;1.10;;;1.10;;
61477;SDS011;47345;52.334;10.392;2023-04-04T10:09:23;1.40;;;1.20;;
61477;SDS011;47345;52.334;10.392;2023-04-04T10:11:54;1.60;;;1.40;;
61477;SDS011;47345;52.334;10.392;2023-04-04T10:14:37;1.20;;;1.20;;
61477;SDS011;47345;52.334;10.392;2023-04-04T10:17:08;1.10;;;1.10;;
61477;SDS011;47345;52.334;10.392;2023-04-04T10:19:40;0.80;;;0.80;;
61477;SDS011;47345;52.334;10.392;2023-04-04T10:22:10;2.30;;;1.60;;
61477;SDS011;47345;52.334;10.392;2023-04-04T10:24:42;1.00;;;1.00;;
61477;SDS011;47345;52.334;10.392;2023-04-04T10:27:13;1.40;;;1.30;;
61477;SDS011;47345;52.334;10.392;2023-04-04T10:29:44;2.30;;;1.50;;
61477;SDS011;47345;52.334;10.392;2023-04-04T10:32:15;1.10;;;1.10;;
61477;SDS011;47345;52.334;10.392;2023-04-04T10:34:54;1.60;;;1.50;;
61477;SDS011;47345;52.334;10.392;2023-04-04T10:37:33;1.30;;;1.30;;
61477;SDS011;47345;52.334;10.392;2023-04-04T10:40:06;1.90;;;1.10;;
61477;SDS011;47345;52.334;10.392;2023-04-04T10:42:43;2.80;;;1.60;;
61477;SDS011;47345;52.334;10.392;2023-04-04T10:45:15;1.30;;;1.20;;
61477;SDS011;47345;52.334;10.392;2023-04-04T10:47:48;1.40;;;1.30;;
61477;SDS011;47345;52.334;10.392;2023-04-04T10:50:20;1.40;;;1.30;;
61477;SDS011;47345;52.334;10.392;2023-04-04T10:52:53;2.60;;;1.60;;
61477;SDS011;47345;52.334;10.392;2023-04-04T10:55:26;1.90;;;1.40;;
61477;SDS011;47345;52.334;10.392;2023-04-04T10:57:58;1.80;;;1.50;;
61477;SDS011;47345;52.334;10.392;2023-04-04T11:00:30;1.60;;;1.40;;
61477;SDS011;47345;52.334;10.392;2023-04-04T11:03:01;1.50;;;1.40;;
61477;SDS011;47345;52.334;10.392;2023-04-04T11:05:32;1.10;;;1.10;;
61477;SDS011;47345;52.334;10.392;2023-04-04T11:08:09;1.00;;;1.00;;
61477;SDS011;47345;52.334;10.392;2023-04-04T11:10:47;1.30;;;1.20;;
61477;SDS011;47345;52.334;10.392;2023-04-04T11:13:19;1.30;;;1.30;;
61477;SDS011;47345;52.334;10.392;2023-04-04T11:15:56;1.40;;;1.30;;
61477;SDS011;47345;52.334;10.392;2023-04-04T11:21:26;1.80;;;1.70;;
61477;SDS011;47345;52.334;10.392;2023-04-04T11:24:13;1.30;;;1.20;;
61477;SDS011;47345;52.334;10.392;2023-04-04T11:26:44;1.60;;;1.50;;
61477;SDS011;47345;52.334;10.392;2023-04-04T11:29:20;4.40;;;1.70;;
61477;SDS011;47345;52.334;10.392;2023-04-04T11:35:26;1.50;;;1.40;;
61477;SDS011;47345;52.334;10.392;2023-04-04T11:38:00;1.50;;;1.40;;
61477;SDS011;47345;52.334;10.392;2023-04-04T11:40:34;1.70;;;1.60;;
61477;SDS011;47345;52.334;10.392;2023-04-04T11:43:10;1.20;;;1.20;;
61477;SDS011;47345;52.334;10.392;2023-04-04T11:45:43;1.60;;;1.50;;
61477;SDS011;47345;52.334;10.392;2023-04-04T11:48:14;2.80;;;1.70;;
61477;SDS011;47345;52.334;10.392;2023-04-04T11:50:47;1.60;;;1.50;;
61477;SDS011;47345;52.334;10.392;2023-04-04T11:53:18;1.60;;;1.50;;
61477;SDS011;47345;52.334;10.392;2023-04-04T11:55:49;2.40;;;1.60;;
61477;SDS011;47345;52.334;10.392;2023-04-04T11:58:23;3.00;;;1.40;;
61477;SDS011;47345;52.334;10.392;2023-04-04T12:00:56;1.10;;;1.10;;
61477;SDS011;47345;52.334;10.392;2023-04-04T12:03:26;1.10;;;1.10;;
61477;SDS011;47345;52.334;10.392;2023-04-04T12:05:58;3.80;;;1.50;;
61477;SDS011;47345;52.334;10.392;2023-04-04T12:08:29;1.60;;;1.50;;
61477;SDS011;47345;52.334;10.392;2023-04-04T12:11:05;1.50;;;1.40;;
61477;SDS011;47345;52.334;10.392;2023-04-04T12:13:41;1.50;;;1.40;;
61477;SDS011;47345;52.334;10.392;2023-04-04T12:16:12;1.70;;;1.30;;
61477;SDS011;47345;52.334;10.392;2023-04-04T12:18:42;1.40;;;1.30;;
61477;SDS011;47345;52.334;10.392;2023-04-04T12:21:13;1.70;;;1.60;;
61477;SDS011;47345;52.334;10.392;2023-04-04T12:23:44;1.50;;;1.40;;
61477;SDS011;47345;52.334;10.392;2023-04-04T12:26:16;3.00;;;1.70;;
61477;SDS011;47345;52.334;10.392;2023-04-04T12:28:47;1.40;;;1.30;;
61477;SDS011;47345;52.334;10.392;2023-04-04T12:31:20;1.80;;;1.70;;
61477;SDS011;47345;52.334;10.392;2023-04-04T12:33:50;1.30;;;1.20;;
61477;SDS011;47345;52.334;10.392;2023-04-04T12:36:21;2.00;;;1.50;;
61477;SDS011;47345;52.334;10.392;2023-04-04T12:39:00;1.60;;;1.50;;
61477;SDS011;47345;52.334;10.392;2023-04-04T12:41:34;1.60;;;1.50;;
61477;SDS011;47345;52.334;10.392;2023-04-04T12:44:24;1.50;;;1.40;;
61477;SDS011;47345;52.334;10.392;2023-04-04T12:46:57;1.50;;;1.40;;
61477;SDS011;47345;52.334;10.392;2023-04-04T12:49:29;2.00;;;1.40;;
61477;SDS011;47345;52.334;10.392;2023-04-04T12:52:00;1.70;;;1.60;;
61477;SDS011;47345;52.334;10.392;2023-04-04T12:54:34;1.60;;;1.50;;
61477;SDS011;47345;52.334;10.392;2023-04-04T12:57:08;1.40;;;1.30;;
61477;SDS011;47345;52.334;10.392;2023-04-04T12:59:41;1.50;;;1.40;;
61477;SDS011;47345;52.334;10.392;2023-04-04T13:02:15;2.00;;;1.20;;
61477;SDS011;47345;52.334;10.392;2023-04-04T13:04:50;1.90;;;1.40;;
61477;SDS011;47345;52.334;10.392;2023-04-04T13:07:23;2.20;;;1.40;;
61477;SDS011;47345;52.334;10.392;2023-04-04T13:09:56;2.50;;;1.30;;
61477;SDS011;47345;52.334;10.392;2023-04-04T13:15:34;1.80;;;1.40;;
61477;SDS011;47345;52.334;10.392;2023-04-04T13:18:21;1.40;;;1.30;;
61477;SDS011;47345;52.334;10.392;2023-04-04T13:20:53;1.60;;;1.50;;
61477;SDS011;47345;52.334;10.392;2023-04-04T13:23:23;2.40;;;1.40;;
61477;SDS011;47345;52.334;10.392;2023-04-04T13:25:54;1.70;;;1.50;;
61477;SDS011;47345;52.334;10.392;2023-04-04T13:28:26;2.30;;;1.40;;
61477;SDS011;47345;52.334;10.392;2023-04-04T13:30:57;1.50;;;1.40;;
61477;SDS011;47345;52.334;10.392;2023-04-04T13:33:31;1.70;;;1.20;;
61477;SDS011;47345;52.334;10.392;2023-04-04T13:36:02;2.10;;;1.50;;
61477;SDS011;47345;52.334;10.392;2023-04-04T13:38:33;1.50;;;1.40;;
61477;SDS011;47345;52.334;10.392;2023-04-04T13:41:04;1.70;;;1.30;;
61477;SDS011;47345;52.334;10.392;2023-04-04T13:43:34;1.30;;;1.30;;
61477;SDS011;47345;52.334;10.392;2023-04-04T13:46:04;2.40;;;1.50;;
61477;SDS011;47345;52.334;10.392;2023-04-04T13:48:35;2.00;;;1.60;;
61477;SDS011;47345;52.334;10.392;2023-04-04T13:51:06;2.30;;;1.70;;
61477;SDS011;47345;52.334;10.392;2023-04-04T13:53:37;1.60;;;1.40;;
61477;SDS011;47345;52.334;10.392;2023-04-04T13:56:08;1.40;;;1.30;;
61477;SDS011;47345;52.334;10.392;2023-04-04T13:58:41;1.50;;;1.40;;
61477;SDS011;47345;52.334;10.392;2023-04-04T14:01:12;1.20;;;1.20;;
61477;SDS011;47345;52.334;10.392;2023-04-04T14:03:43;2.00;;;1.50;;
61477;SDS011;47345;52.334;10.392;2023-04-04T14:06:15;2.60;;;1.50;;
61477;SDS011;47345;52.334;10.392;2023-04-04T14:08:46;1.60;;;1.50;;
61477;SDS011;47345;52.334;10.392;2023-04-04T14:11:16;1.40;;;1.40;;
61477;SDS011;47345;52.334;10.392;2023-04-04T14:13:47;1.50;;;1.40;;
61477;SDS011;47345;52.334;10.392;2023-04-04T14:16:18;2.20;;;1.60;;
61477;SDS011;47345;52.334;10.392;2023-04-04T14:18:50;1.60;;;1.50;;
61477;SDS011;47345;52.334;10.392;2023-04-04T14:21:20;1.70;;;1.30;;
61477;SDS011;47345;52.334;10.392;2023-04-04T14:23:51;1.40;;;1.30;;
61477;SDS011;47345;52.334;10.392;2023-04-04T14:26:22;1.50;;;1.30;;
61477;SDS011;47345;52.334;10.392;2023-04-04T14:28:53;1.80;;;1.70;;
61477;SDS011;47345;52.334;10.392;2023-04-04T14:31:24;1.60;;;1.50;;
61477;SDS011;47345;52.334;10.392;2023-04-04T14:33:54;1.80;;;1.40;;
61477;SDS011;47345;52.334;10.392;2023-04-04T14:36:24;1.30;;;1.20;;
61477;SDS011;47345;52.334;10.392;2023-04-04T14:38:55;1.40;;;1.30;;
61477;SDS011;47345;52.334;10.392;2023-04-04T14:41:26;1.70;;;1.50;;
61477;SDS011;47345;52.334;10.392;2023-04-04T14:43:56;1.50;;;1.40;;
61477;SDS011;47345;52.334;10.392;2023-04-04T14:46:27;1.80;;;1.40;;
61477;SDS011;47345;52.334;10.392;2023-04-04T14:49:00;3.60;;;1.90;;
61477;SDS011;47345;52.334;10.392;2023-04-04T14:51:33;1.20;;;1.10;;
61477;SDS011;47345;52.334;10.392;2023-04-04T14:54:03;1.30;;;1.20;;
61477;SDS011;47345;52.334;10.392;2023-04-04T14:56:34;1.40;;;1.30;;
61477;SDS011;47345;52.334;10.392;2023-04-04T14:59:04;1.40;;;1.30;;
61477;SDS011;47345;52.334;10.392;2023-04-04T15:01:35;1.40;;;1.30;;
61477;SDS011;47345;52.334;10.392;2023-04-04T15:04:05;1.30;;;1.20;;
61477;SDS011;47345;52.334;10.392;2023-04-04T15:06:38;1.60;;;1.30;;
61477;SDS011;47345;52.334;10.392;2023-04-04T15:09:10;1.30;;;1.20;;